Terminal Aerodrome Forecast
Issued by NWS Knoxville/Tri Cities, TN

Home | Current Version | Previous Version | Text Only | Print | Product List | Glossary On
Versions: 1 2 3 4 5 6 7 8 9 10 11 12
000
FTUS44 KMRX 211121
TAFTRI
TAF
KTRI 211121Z 2112/2212 VRB02KT P6SM SCT250
     FM211400 25006KT P6SM BKN200
     FM220000 VRB02KT P6SM SCT070 BKN200
     FM220600 25003KT P6SM VCSH BKN060 OVC100=

USA.gov is the U.S. government's official web portal to all federal, state and local government web resources and services.